Time;durP1;ratioP1;P1;durP2;ratioP2;P2;SDS_P1;SDS_P2;PMS_P1;PMS_P2;Temp;Humidity;BMP_temperature;BMP_pressure;BME280_temperature;BME280_humidity;BME280_pressure;Samples;Min_cycle;Max_cycle;Signal;HPM_P1;HPM_P2
2023/09/24 00:00:59;;;;;;;8.25;3.35;;;;;;;;;;5105748;28;20101;-79
2023/09/24 00:03:25;;;;;;;9.10;3.58;;;;;;;;;;5100635;28;20052;-79
2023/09/24 00:05:52;;;;;;;7.38;3.42;;;;;;;;;;5110045;28;20063;-79
2023/09/24 00:08:18;;;;;;;9.23;3.53;;;;;;;;;;5105014;28;20040;-79
2023/09/24 00:10:52;;;;;;;5.55;2.97;;;;;;;;;;5109804;28;20074;-79
2023/09/24 00:13:22;;;;;;;6.45;2.97;;;;;;;;;;5101419;28;20121;-79
2023/09/24 00:15:49;;;;;;;7.05;3.10;;;;;;;;;;5104375;28;20043;-79
2023/09/24 00:18:17;;;;;;;6.55;3.45;;;;;;;;;;5113708;28;20085;-79
2023/09/24 00:20:43;;;;;;;10.32;3.42;;;;;;;;;;5112423;28;20104;-79
2023/09/24 00:23:10;;;;;;;5.00;3.28;;;;;;;;;;5109525;28;20123;-79
2023/09/24 00:25:37;;;;;;;8.85;3.75;;;;;;;;;;5108457;28;20135;-79
2023/09/24 00:28:03;;;;;;;7.15;3.65;;;;;;;;;;5098386;28;20040;-79
2023/09/24 00:30:31;;;;;;;6.57;3.22;;;;;;;;;;5103791;28;20506;-79
2023/09/24 00:32:58;;;;;;;10.05;3.10;;;;;;;;;;5110806;28;20047;-79
2023/09/24 00:35:24;;;;;;;5.68;3.17;;;;;;;;;;5111138;28;20047;-79
2023/09/24 00:37:50;;;;;;;8.43;3.40;;;;;;;;;;5103319;28;20075;-79
2023/09/24 00:40:16;;;;;;;8.90;3.53;;;;;;;;;;5104153;28;20078;-79
2023/09/24 00:42:42;;;;;;;6.72;3.88;;;;;;;;;;5097516;28;20476;-79
2023/09/24 00:45:10;;;;;;;9.02;3.13;;;;;;;;;;5103737;28;20079;-79
2023/09/24 00:47:37;;;;;;;6.43;3.35;;;;;;;;;;5102361;27;20048;-79
2023/09/24 00:50:04;;;;;;;6.88;3.13;;;;;;;;;;5101940;28;20043;-79
2023/09/24 00:52:30;;;;;;;7.85;2.95;;;;;;;;;;5109555;28;20039;-79
2023/09/24 00:54:57;;;;;;;9.65;3.60;;;;;;;;;;5109443;28;20864;-79
2023/09/24 00:57:24;;;;;;;7.10;3.25;;;;;;;;;;5108323;28;20067;-79
2023/09/24 00:59:51;;;;;;;7.40;3.30;;;;;;;;;;5112190;28;20051;-79
2023/09/24 01:02:17;;;;;;;7.50;3.38;;;;;;;;;;5111247;28;20047;-79
2023/09/24 01:04:43;;;;;;;7.18;3.20;;;;;;;;;;5102462;28;20120;-79
2023/09/24 01:07:09;;;;;;;6.63;3.67;;;;;;;;;;5102657;28;20074;-79
2023/09/24 01:09:35;;;;;;;6.25;3.00;;;;;;;;;;5110778;28;20059;-79
2023/09/24 01:12:03;;;;;;;8.48;3.67;;;;;;;;;;5109400;28;20048;-79
2023/09/24 01:14:30;;;;;;;7.13;3.70;;;;;;;;;;5091990;28;20082;-79
2023/09/24 01:16:56;;;;;;;4.93;3.13;;;;;;;;;;5104227;28;20043;-79
2023/09/24 01:19:23;;;;;;;8.50;3.65;;;;;;;;;;5104092;28;20123;-79
2023/09/24 01:21:50;;;;;;;7.82;3.85;;;;;;;;;;5113138;28;20516;-79
2023/09/24 01:24:16;;;;;;;8.68;3.72;;;;;;;;;;5101749;28;20044;-79
2023/09/24 01:26:44;;;;;;;7.03;4.10;;;;;;;;;;5100816;28;20108;-79
2023/09/24 01:29:11;;;;;;;9.15;3.80;;;;;;;;;;5107644;28;20488;-79
2023/09/24 01:31:40;;;;;;;9.05;3.97;;;;;;;;;;5110686;28;20079;-79
2023/09/24 01:34:06;;;;;;;6.60;3.50;;;;;;;;;;5106449;28;20139;-79
2023/09/24 01:36:33;;;;;;;6.55;3.60;;;;;;;;;;5099325;28;20075;-79
2023/09/24 01:38:59;;;;;;;8.13;3.70;;;;;;;;;;5108492;28;20079;-79
2023/09/24 01:41:25;;;;;;;10.85;4.05;;;;;;;;;;5106732;28;20112;-79
2023/09/24 01:43:52;;;;;;;7.63;3.60;;;;;;;;;;5089893;28;20097;-78
2023/09/24 01:46:20;;;;;;;8.38;4.13;;;;;;;;;;5105306;28;20040;-79
2023/09/24 01:48:50;;;;;;;10.10;3.75;;;;;;;;;;5099648;28;20118;-79
2023/09/24 01:51:16;;;;;;;8.75;4.25;;;;;;;;;;5109576;28;20052;-79
2023/09/24 01:53:42;;;;;;;10.73;4.35;;;;;;;;;;5101743;28;20056;-79
2023/09/24 01:56:09;;;;;;;6.05;3.35;;;;;;;;;;5103411;28;20043;-79
2023/09/24 01:58:38;;;;;;;8.20;3.60;;;;;;;;;;5111013;28;20275;-79
2023/09/24 02:01:05;;;;;;;7.00;3.72;;;;;;;;;;5103305;28;20174;-79
2023/09/24 02:03:31;;;;;;;6.15;3.10;;;;;;;;;;5096066;28;20169;-79
2023/09/24 02:05:57;;;;;;;8.15;3.92;;;;;;;;;;5106211;28;20055;-79
2023/09/24 02:08:23;;;;;;;7.35;3.33;;;;;;;;;;5100622;28;20403;-79
2023/09/24 02:10:49;;;;;;;6.03;3.20;;;;;;;;;;5110559;28;20040;-79
2023/09/24 02:13:15;;;;;;;5.53;3.47;;;;;;;;;;5112209;28;20043;-79
2023/09/24 02:15:46;;;;;;;7.30;3.92;;;;;;;;;;5105427;28;20054;-79
2023/09/24 02:18:12;;;;;;;7.43;3.50;;;;;;;;;;5101488;28;20100;-79
2023/09/24 02:20:41;;;;;;;9.48;3.80;;;;;;;;;;5110951;28;20059;-79
2023/09/24 02:23:08;;;;;;;6.50;3.63;;;;;;;;;;5113206;28;20445;-79
2023/09/24 02:25:38;;;;;;;6.55;3.65;;;;;;;;;;5094967;27;20040;-79
2023/09/24 02:28:05;;;;;;;7.45;3.40;;;;;;;;;;5102723;27;20381;-79
2023/09/24 02:30:32;;;;;;;7.13;3.40;;;;;;;;;;5113194;28;20047;-79
2023/09/24 02:32:58;;;;;;;7.10;3.45;;;;;;;;;;5115808;28;20050;-79
2023/09/24 02:35:25;;;;;;;9.40;3.65;;;;;;;;;;5107012;28;20150;-79
2023/09/24 02:37:52;;;;;;;13.10;3.85;;;;;;;;;;5100171;28;20060;-79
2023/09/24 02:40:22;;;;;;;8.30;4.25;;;;;;;;;;5094958;28;20115;-79
2023/09/24 02:42:50;;;;;;;11.18;4.15;;;;;;;;;;5100205;28;20508;-79
2023/09/24 02:45:16;;;;;;;5.25;3.38;;;;;;;;;;5102742;28;20050;-79
2023/09/24 02:47:43;;;;;;;6.60;3.72;;;;;;;;;;5110680;28;20043;-79
2023/09/24 02:50:12;;;;;;;10.95;4.13;;;;;;;;;;5113149;28;20105;-79
2023/09/24 02:52:40;;;;;;;8.10;3.85;;;;;;;;;;5104769;28;20117;-79
2023/09/24 02:55:07;;;;;;;11.65;4.47;;;;;;;;;;5105252;28;20063;-79
2023/09/24 02:57:33;;;;;;;7.63;4.35;;;;;;;;;;5106602;28;20044;-79
2023/09/24 02:59:59;;;;;;;8.02;4.28;;;;;;;;;;5107533;28;20115;-79
2023/09/24 03:02:28;;;;;;;9.55;4.47;;;;;;;;;;5111737;28;20044;-79
2023/09/24 03:04:56;;;;;;;10.20;4.78;;;;;;;;;;5106973;28;20085;-79
2023/09/24 03:07:22;;;;;;;7.68;4.40;;;;;;;;;;5098662;28;20487;-79
2023/09/24 03:09:49;;;;;;;7.72;3.75;;;;;;;;;;5108664;28;20479;-79
2023/09/24 03:12:15;;;;;;;12.95;4.55;;;;;;;;;;5109633;28;20524;-79
2023/09/24 03:14:41;;;;;;;7.30;4.28;;;;;;;;;;5103648;28;20469;-79
2023/09/24 03:17:07;;;;;;;11.18;4.47;;;;;;;;;;5109795;28;20160;-79
2023/09/24 03:19:33;;;;;;;9.50;4.45;;;;;;;;;;5101686;28;20422;-79
2023/09/24 03:22:00;;;;;;;7.03;4.00;;;;;;;;;;5097965;28;20127;-79
2023/09/24 03:24:26;;;;;;;8.05;5.18;;;;;;;;;;5107171;28;20122;-79
2023/09/24 03:26:52;;;;;;;10.48;4.72;;;;;;;;;;5094427;28;20135;-79
2023/09/24 03:29:19;;;;;;;7.32;4.35;;;;;;;;;;5096176;28;20440;-79
2023/09/24 03:31:45;;;;;;;6.72;4.13;;;;;;;;;;5101739;28;20046;-79
2023/09/24 03:34:11;;;;;;;8.30;4.70;;;;;;;;;;5109319;28;20036;-79
2023/09/24 03:36:37;;;;;;;8.90;4.63;;;;;;;;;;5099682;28;20047;-79
2023/09/24 03:39:04;;;;;;;8.48;4.68;;;;;;;;;;5096534;28;20075;-79
2023/09/24 03:41:30;;;;;;;7.68;4.53;;;;;;;;;;5103192;28;20106;-79
2023/09/24 03:43:56;;;;;;;6.75;4.55;;;;;;;;;;5097019;28;20103;-79
2023/09/24 03:46:22;;;;;;;10.05;5.15;;;;;;;;;;5101103;28;20126;-79
2023/09/24 03:48:49;;;;;;;8.75;4.88;;;;;;;;;;5102207;28;20189;-79
2023/09/24 03:51:15;;;;;;;9.25;4.90;;;;;;;;;;5109884;28;20079;-79
2023/09/24 03:53:41;;;;;;;8.23;5.50;;;;;;;;;;5106100;28;20040;-79
2023/09/24 03:56:07;;;;;;;9.95;4.63;;;;;;;;;;5112262;28;20039;-79
2023/09/24 03:58:33;;;;;;;7.90;4.63;;;;;;;;;;5114408;28;20044;-79
2023/09/24 04:01:08;;;;;;;9.18;5.10;;;;;;;;;;5109620;28;20197;-79
2023/09/24 04:03:34;;;;;;;7.93;4.88;;;;;;;;;;5094809;28;20044;-79
2023/09/24 04:06:00;;;;;;;8.80;5.65;;;;;;;;;;5112483;28;20054;-79
2023/09/24 04:08:26;;;;;;;8.23;5.10;;;;;;;;;;5104440;28;20040;-79
2023/09/24 04:10:52;;;;;;;8.40;5.47;;;;;;;;;;5093341;28;20077;-79
2023/09/24 04:13:18;;;;;;;11.25;6.07;;;;;;;;;;5100710;28;20458;-79
2023/09/24 04:15:44;;;;;;;8.77;5.22;;;;;;;;;;5106928;28;20530;-79
2023/09/24 04:18:10;;;;;;;12.25;5.20;;;;;;;;;;5112337;28;20506;-79
2023/09/24 04:20:36;;;;;;;14.27;6.20;;;;;;;;;;5106644;28;20130;-79
2023/09/24 04:23:02;;;;;;;9.10;5.63;;;;;;;;;;5110813;28;20092;-79
2023/09/24 04:25:29;;;;;;;7.22;5.07;;;;;;;;;;5100512;28;20411;-79
2023/09/24 04:27:55;;;;;;;8.82;5.70;;;;;;;;;;5097482;28;20136;-79
2023/09/24 04:30:24;;;;;;;9.80;5.38;;;;;;;;;;5102161;28;20134;-79
2023/09/24 04:32:54;;;;;;;10.00;5.55;;;;;;;;;;5113376;28;20130;-79
2023/09/24 04:35:23;;;;;;;10.27;6.22;;;;;;;;;;5104031;28;20047;-79
2023/09/24 04:37:50;;;;;;;12.15;6.70;;;;;;;;;;5097803;28;20056;-79
2023/09/24 04:40:16;;;;;;;9.65;6.18;;;;;;;;;;5108396;28;20145;-79
2023/09/24 04:42:42;;;;;;;11.90;6.50;;;;;;;;;;5110726;28;20055;-79
2023/09/24 04:45:11;;;;;;;10.40;5.85;;;;;;;;;;5110280;28;20051;-79
2023/09/24 04:47:37;;;;;;;11.15;6.03;;;;;;;;;;5104696;28;20067;-79
2023/09/24 04:50:03;;;;;;;9.13;6.10;;;;;;;;;;5104420;27;20054;-79
2023/09/24 04:52:30;;;;;;;11.65;6.20;;;;;;;;;;5108623;28;20047;-79
2023/09/24 04:54:56;;;;;;;10.95;6.35;;;;;;;;;;5108129;28;20050;-79
2023/09/24 04:57:22;;;;;;;10.90;6.82;;;;;;;;;;5110595;28;20051;-79
2023/09/24 04:59:53;;;;;;;10.70;6.70;;;;;;;;;;5112712;28;20464;-79
2023/09/24 05:02:21;;;;;;;8.93;6.07;;;;;;;;;;5107284;28;20048;-79
2023/09/24 05:04:48;;;;;;;9.50;6.70;;;;;;;;;;5098794;28;20419;-79
2023/09/24 05:07:14;;;;;;;11.27;6.80;;;;;;;;;;5094453;28;20108;-79
2023/09/24 05:09:40;;;;;;;11.10;6.57;;;;;;;;;;5104181;28;20399;-79
2023/09/24 05:12:06;;;;;;;10.23;6.25;;;;;;;;;;5111734;28;20139;-79
2023/09/24 05:14:32;;;;;;;9.65;5.78;;;;;;;;;;5113847;28;20075;-79
2023/09/24 05:17:00;;;;;;;11.68;6.32;;;;;;;;;;5104377;28;20036;-79
2023/09/24 05:19:26;;;;;;;10.77;6.22;;;;;;;;;;5107650;28;20096;-79
2023/09/24 05:21:52;;;;;;;10.70;6.18;;;;;;;;;;5108969;28;20124;-79
2023/09/24 05:24:18;;;;;;;10.38;6.00;;;;;;;;;;5111695;28;20063;-79
2023/09/24 05:26:45;;;;;;;10.55;6.32;;;;;;;;;;5098040;28;20474;-82
2023/09/24 05:29:11;;;;;;;9.68;6.10;;;;;;;;;;5095829;28;20036;-79
2023/09/24 05:31:38;;;;;;;9.85;6.32;;;;;;;;;;5098857;28;20452;-80
2023/09/24 05:34:05;;;;;;;11.95;6.68;;;;;;;;;;5104814;28;20889;-79
2023/09/24 05:36:32;;;;;;;11.15;7.20;;;;;;;;;;5109839;28;20180;-79
2023/09/24 05:38:58;;;;;;;9.18;6.43;;;;;;;;;;5113913;28;20062;-79
2023/09/24 05:41:25;;;;;;;11.82;6.95;;;;;;;;;;5107434;28;20040;-79
2023/09/24 05:43:54;;;;;;;10.82;6.45;;;;;;;;;;5110402;28;20048;-79
2023/09/24 05:46:20;;;;;;;13.38;6.82;;;;;;;;;;5117091;28;20046;-82
2023/09/24 05:48:46;;;;;;;10.93;6.10;;;;;;;;;;5106348;28;20691;-80
2023/09/24 05:51:12;;;;;;;14.32;7.20;;;;;;;;;;5107631;28;20103;-80
2023/09/24 05:53:38;;;;;;;11.27;6.50;;;;;;;;;;5117817;28;20078;-80
2023/09/24 05:56:04;;;;;;;13.05;6.68;;;;;;;;;;5114698;28;20067;-80
2023/09/24 05:58:30;;;;;;;9.80;6.35;;;;;;;;;;5098789;28;20373;-79
2023/09/24 06:00:57;;;;;;;10.20;6.50;;;;;;;;;;5097857;28;20464;-79
2023/09/24 06:03:23;;;;;;;12.55;7.00;;;;;;;;;;5109243;28;20067;-80
2023/09/24 06:05:49;;;;;;;12.18;6.88;;;;;;;;;;5115416;28;20070;-79
2023/09/24 06:08:15;;;;;;;10.32;6.70;;;;;;;;;;5108492;28;20047;-79
2023/09/24 06:10:45;;;;;;;9.95;6.45;;;;;;;;;;5111870;28;20044;-81
2023/09/24 06:13:15;;;;;;;9.90;5.88;;;;;;;;;;5095660;28;20048;-79
2023/09/24 06:15:44;;;;;;;12.05;7.05;;;;;;;;;;5094898;28;20162;-79
2023/09/24 06:18:11;;;;;;;10.20;6.50;;;;;;;;;;5096230;28;20115;-78
2023/09/24 06:20:38;;;;;;;10.68;6.75;;;;;;;;;;5111794;28;20045;-78
2023/09/24 06:23:05;;;;;;;11.32;6.57;;;;;;;;;;5113067;28;20538;-78
2023/09/24 06:25:31;;;;;;;13.02;7.00;;;;;;;;;;5107331;28;20040;-78
2023/09/24 06:27:57;;;;;;;13.40;6.93;;;;;;;;;;5102945;28;20044;-78
2023/09/24 06:30:23;;;;;;;14.02;6.85;;;;;;;;;;5114978;28;20039;-78
2023/09/24 06:32:49;;;;;;;11.93;6.75;;;;;;;;;;5112685;28;20047;-78
2023/09/24 06:35:15;;;;;;;11.43;6.60;;;;;;;;;;5114629;28;20391;-78
2023/09/24 06:37:41;;;;;;;9.73;6.75;;;;;;;;;;5103089;28;20058;-78
2023/09/24 06:40:09;;;;;;;12.50;6.60;;;;;;;;;;5107589;28;20063;-78
2023/09/24 06:42:37;;;;;;;13.15;6.43;;;;;;;;;;5106247;28;20032;-78
2023/09/24 06:45:04;;;;;;;11.52;6.13;;;;;;;;;;5109517;28;20051;-78
2023/09/24 06:47:30;;;;;;;10.85;6.88;;;;;;;;;;5115170;28;20126;-78
2023/09/24 06:49:56;;;;;;;9.23;6.63;;;;;;;;;;5113751;28;20048;-78
2023/09/24 06:52:22;;;;;;;11.35;6.10;;;;;;;;;;5102585;28;20394;-78
2023/09/24 06:54:48;;;;;;;13.50;6.57;;;;;;;;;;5106997;28;20063;-78
2023/09/24 06:57:14;;;;;;;13.00;6.68;;;;;;;;;;5111491;28;20080;-78
2023/09/24 06:59:40;;;;;;;8.68;6.45;;;;;;;;;;5106662;27;20067;-77
2023/09/24 07:02:07;;;;;;;10.27;5.90;;;;;;;;;;5101384;28;20083;-78
2023/09/24 07:04:33;;;;;;;12.68;6.40;;;;;;;;;;5106590;28;20059;-78
2023/09/24 07:06:59;;;;;;;10.68;6.72;;;;;;;;;;5102668;28;20373;-78
2023/09/24 07:09:25;;;;;;;10.00;6.72;;;;;;;;;;5109515;27;20407;-79
2023/09/24 07:11:51;;;;;;;11.05;6.47;;;;;;;;;;5106756;28;20104;-77
2023/09/24 07:14:19;;;;;;;10.68;6.35;;;;;;;;;;5107593;28;20058;-79
2023/09/24 07:16:46;;;;;;;12.93;6.75;;;;;;;;;;5098344;28;20056;-77
2023/09/24 07:19:12;;;;;;;13.48;6.93;;;;;;;;;;5106996;28;20047;-77
2023/09/24 07:21:38;;;;;;;11.18;6.75;;;;;;;;;;5110188;27;20046;-77
2023/09/24 07:24:06;;;;;;;12.82;6.25;;;;;;;;;;5094372;28;20056;-77
2023/09/24 07:26:32;;;;;;;9.88;6.45;;;;;;;;;;5112076;28;20056;-78
2023/09/24 07:29:00;;;;;;;11.13;6.53;;;;;;;;;;5104610;28;20453;-78
2023/09/24 07:31:26;;;;;;;11.30;6.90;;;;;;;;;;5110316;28;20124;-78
2023/09/24 07:33:53;;;;;;;10.07;6.57;;;;;;;;;;5103303;28;20050;-76
2023/09/24 07:36:19;;;;;;;11.98;6.40;;;;;;;;;;5103969;28;20464;-77
2023/09/24 07:38:45;;;;;;;10.30;5.75;;;;;;;;;;5107459;27;20058;-77
2023/09/24 07:41:11;;;;;;;12.80;6.25;;;;;;;;;;5116866;27;20134;-77
2023/09/24 07:43:38;;;;;;;8.45;6.05;;;;;;;;;;5106324;28;20050;-77
2023/09/24 07:46:05;;;;;;;10.55;6.03;;;;;;;;;;5104250;28;20036;-77
2023/09/24 07:48:31;;;;;;;8.98;5.88;;;;;;;;;;5119234;27;20035;-77
2023/09/24 07:50:58;;;;;;;12.77;5.45;;;;;;;;;;5114254;28;20047;-77
2023/09/24 07:53:24;;;;;;;11.13;6.57;;;;;;;;;;5113095;27;20104;-77
2023/09/24 07:56:06;;;;;;;10.60;6.07;;;;;;;;;;5109115;28;20039;-77
2023/09/24 07:58:33;;;;;;;16.85;6.50;;;;;;;;;;5114401;28;20047;-77
2023/09/24 08:01:03;;;;;;;10.65;5.80;;;;;;;;;;5108658;28;20040;-77
2023/09/24 08:03:29;;;;;;;7.75;5.13;;;;;;;;;;5104765;28;20052;-77
2023/09/24 08:05:55;;;;;;;9.63;5.40;;;;;;;;;;5113716;28;20436;-77
2023/09/24 08:08:21;;;;;;;11.35;5.70;;;;;;;;;;5105814;28;20068;-78
2023/09/24 08:10:47;;;;;;;8.88;5.40;;;;;;;;;;5110253;28;20040;-78
2023/09/24 08:13:14;;;;;;;9.02;5.38;;;;;;;;;;5110139;28;20047;-78
2023/09/24 08:15:40;;;;;;;8.90;5.40;;;;;;;;;;5112207;28;20104;-78
2023/09/24 08:18:09;;;;;;;7.72;5.25;;;;;;;;;;5105417;27;20040;-78
2023/09/24 08:20:36;;;;;;;7.93;5.38;;;;;;;;;;5115258;27;20138;-78
2023/09/24 08:23:03;;;;;;;9.43;5.47;;;;;;;;;;5104779;28;20044;-78
2023/09/24 08:25:29;;;;;;;9.48;5.00;;;;;;;;;;5102004;28;20039;-78
2023/09/24 08:27:55;;;;;;;9.30;5.18;;;;;;;;;;5113161;28;20092;-78
2023/09/24 08:30:21;;;;;;;8.48;5.15;;;;;;;;;;5106687;28;20371;-78
2023/09/24 08:32:47;;;;;;;9.07;4.97;;;;;;;;;;5113385;28;20515;-77
2023/09/24 08:35:13;;;;;;;7.97;4.78;;;;;;;;;;5112407;28;20123;-78
2023/09/24 08:37:39;;;;;;;7.95;4.60;;;;;;;;;;5113154;28;20048;-77
2023/09/24 08:40:07;;;;;;;9.45;4.65;;;;;;;;;;5116403;27;20179;-78
2023/09/24 08:42:33;;;;;;;8.27;4.85;;;;;;;;;;5120800;27;20054;-78
2023/09/24 08:45:19;;;;;;;7.50;4.35;;;;;;;;;;5108979;28;20071;-78
2023/09/24 08:47:46;;;;;;;9.45;4.07;;;;;;;;;;5097334;28;20070;-78
2023/09/24 08:50:13;;;;;;;7.95;4.40;;;;;;;;;;5112221;28;20051;-78
2023/09/24 08:52:40;;;;;;;10.02;4.28;;;;;;;;;;5110863;28;20035;-78
2023/09/24 08:55:07;;;;;;;7.13;3.97;;;;;;;;;;5101756;28;20409;-77
2023/09/24 08:57:34;;;;;;;9.82;4.68;;;;;;;;;;5104558;28;20093;-78
2023/09/24 09:00:00;;;;;;;7.68;4.70;;;;;;;;;;5104604;28;20047;-77
2023/09/24 09:02:26;;;;;;;7.90;4.63;;;;;;;;;;5107363;28;20115;-77
2023/09/24 09:04:55;;;;;;;8.10;4.32;;;;;;;;;;5100112;28;20119;-77
2023/09/24 09:07:21;;;;;;;7.60;4.03;;;;;;;;;;5107287;28;20040;-77
2023/09/24 09:10:01;;;;;;;6.32;4.20;;;;;;;;;;5104016;28;20048;-78
2023/09/24 09:12:27;;;;;;;7.75;3.63;;;;;;;;;;5103527;28;20115;-77
2023/09/24 09:14:53;;;;;;;8.27;3.90;;;;;;;;;;5112780;28;20082;-78
2023/09/24 09:17:19;;;;;;;9.68;3.75;;;;;;;;;;5112684;28;20075;-77
2023/09/24 09:19:52;;;;;;;8.98;4.20;;;;;;;;;;5116970;28;20126;-78
2023/09/24 09:22:19;;;;;;;6.60;3.50;;;;;;;;;;5112609;28;20055;-78
2023/09/24 09:24:47;;;;;;;7.95;3.58;;;;;;;;;;5113690;28;20048;-78
2023/09/24 09:27:13;;;;;;;6.45;3.95;;;;;;;;;;5103844;28;20036;-78
2023/09/24 09:29:39;;;;;;;7.00;3.72;;;;;;;;;;5108753;28;20050;-78
2023/09/24 09:32:05;;;;;;;7.55;3.47;;;;;;;;;;5107316;28;20115;-78
2023/09/24 09:34:32;;;;;;;5.88;3.45;;;;;;;;;;5117155;28;20043;-78
2023/09/24 09:37:16;;;;;;;9.98;3.42;;;;;;;;;;5098970;28;20133;-78
2023/09/24 09:39:42;;;;;;;4.30;2.63;;;;;;;;;;5094005;28;20063;-78
2023/09/24 09:42:09;;;;;;;7.15;2.72;;;;;;;;;;5117228;28;20483;-78
2023/09/24 09:44:36;;;;;;;4.72;2.60;;;;;;;;;;5113930;28;20437;-78
2023/09/24 09:47:04;;;;;;;5.80;2.63;;;;;;;;;;5112251;27;20407;-78
2023/09/24 09:49:32;;;;;;;8.25;2.83;;;;;;;;;;5106438;28;20044;-78
2023/09/24 09:52:03;;;;;;;5.85;2.70;;;;;;;;;;5096832;28;20043;-78
2023/09/24 09:54:34;;;;;;;8.63;3.03;;;;;;;;;;5112138;28;20069;-78
2023/09/24 09:57:01;;;;;;;6.82;3.03;;;;;;;;;;5097875;28;20520;-78
2023/09/24 09:59:27;;;;;;;5.97;2.75;;;;;;;;;;5113858;28;20039;-78
2023/09/24 10:01:53;;;;;;;8.18;3.08;;;;;;;;;;5102267;28;20078;-78
2023/09/24 10:04:20;;;;;;;6.68;3.13;;;;;;;;;;5099967;28;20198;-78
2023/09/24 10:06:46;;;;;;;4.82;2.88;;;;;;;;;;5108106;28;20052;-78
2023/09/24 10:09:27;;;;;;;5.25;2.70;;;;;;;;;;5106023;28;20040;-78
2023/09/24 10:11:56;;;;;;;7.85;3.40;;;;;;;;;;5100474;28;20052;-78
2023/09/24 10:14:38;;;;;;;6.22;2.72;;;;;;;;;;5108533;28;20047;-78
2023/09/24 10:17:16;;;;;;;4.13;2.50;;;;;;;;;;5117367;28;20111;-78
2023/09/24 10:19:49;;;;;;;6.32;2.75;;;;;;;;;;5116654;28;20048;-78
2023/09/24 10:22:31;;;;;;;7.63;2.90;;;;;;;;;;5105654;28;20115;-77
2023/09/24 10:24:57;;;;;;;9.38;3.17;;;;;;;;;;5098632;28;20468;-78
2023/09/24 10:27:27;;;;;;;7.13;2.60;;;;;;;;;;5105499;28;20035;-78
2023/09/24 10:29:55;;;;;;;4.28;2.40;;;;;;;;;;5107243;28;20040;-78
2023/09/24 10:32:22;;;;;;;6.65;2.72;;;;;;;;;;5100837;28;20052;-78
2023/09/24 10:34:54;;;;;;;8.52;3.08;;;;;;;;;;5108323;28;20058;-78
2023/09/24 10:37:21;;;;;;;6.35;2.88;;;;;;;;;;5095986;28;20071;-78
2023/09/24 10:40:11;;;;;;;6.35;3.05;;;;;;;;;;5099998;28;20047;-78
2023/09/24 10:42:38;;;;;;;5.57;2.75;;;;;;;;;;5116585;28;20043;-78
2023/09/24 10:45:07;;;;;;;5.63;2.88;;;;;;;;;;5104235;28;20452;-79
2023/09/24 10:47:35;;;;;;;4.47;2.70;;;;;;;;;;5108364;27;20476;-78
2023/09/24 10:50:05;;;;;;;6.38;2.95;;;;;;;;;;5098488;28;20131;-78
2023/09/24 10:52:50;;;;;;;6.18;2.50;;;;;;;;;;5100950;28;20105;-78
2023/09/24 10:55:17;;;;;;;5.40;2.47;;;;;;;;;;5107248;28;20054;-78
2023/09/24 10:57:47;;;;;;;6.85;2.60;;;;;;;;;;5099409;28;20127;-78
2023/09/24 11:00:16;;;;;;;7.28;3.00;;;;;;;;;;5115492;27;20040;-79
2023/09/24 11:02:43;;;;;;;6.57;3.22;;;;;;;;;;5117669;28;20039;-82
2023/09/24 11:05:09;;;;;;;6.50;2.60;;;;;;;;;;5116727;28;20108;-78
2023/09/24 11:07:35;;;;;;;5.50;2.70;;;;;;;;;;5111117;28;20051;-79
2023/09/24 11:10:01;;;;;;;6.00;2.50;;;;;;;;;;5102187;28;20044;-78
2023/09/24 11:12:27;;;;;;;5.90;2.80;;;;;;;;;;5110437;28;20047;-78
2023/09/24 11:14:56;;;;;;;5.07;2.35;;;;;;;;;;5106264;27;20051;-78
2023/09/24 11:17:23;;;;;;;4.70;2.55;;;;;;;;;;5110643;27;20142;-78
2023/09/24 11:19:49;;;;;;;6.78;3.00;;;;;;;;;;5103989;28;20044;-78
2023/09/24 11:22:22;;;;;;;6.43;2.47;;;;;;;;;;5105788;28;20458;-78
2023/09/24 11:25:05;;;;;;;5.57;2.60;;;;;;;;;;5095346;28;20146;-78
2023/09/24 11:27:32;;;;;;;5.10;2.67;;;;;;;;;;5106143;28;20083;-78
2023/09/24 11:29:58;;;;;;;6.90;2.78;;;;;;;;;;5102299;28;20040;-78
2023/09/24 11:32:26;;;;;;;5.53;2.50;;;;;;;;;;5100915;28;20040;-78
2023/09/24 11:35:05;;;;;;;5.13;2.60;;;;;;;;;;5105206;28;20510;-78
2023/09/24 11:37:44;;;;;;;5.43;2.85;;;;;;;;;;5104414;28;20044;-78
2023/09/24 11:40:40;;;;;;;7.38;2.92;;;;;;;;;;5110664;28;20055;-78
2023/09/24 11:43:10;;;;;;;5.60;2.53;;;;;;;;;;5103044;28;20052;-78
2023/09/24 11:45:40;;;;;;;6.82;2.60;;;;;;;;;;5106847;28;20036;-81
2023/09/24 11:48:06;;;;;;;3.85;2.38;;;;;;;;;;5098108;28;20063;-80
2023/09/24 11:50:33;;;;;;;5.53;2.83;;;;;;;;;;5099591;28;20118;-77
2023/09/24 11:52:59;;;;;;;4.63;2.50;;;;;;;;;;5099092;28;20058;-78
2023/09/24 11:55:25;;;;;;;4.45;2.47;;;;;;;;;;5097068;28;20051;-78
2023/09/24 11:57:51;;;;;;;4.95;2.45;;;;;;;;;;5100830;28;20047;-78
2023/09/24 12:00:18;;;;;;;4.47;2.40;;;;;;;;;;5101351;28;20124;-77
2023/09/24 12:02:44;;;;;;;5.90;2.30;;;;;;;;;;5102358;28;20413;-78
2023/09/24 12:05:10;;;;;;;4.18;2.42;;;;;;;;;;5098008;28;20063;-78
2023/09/24 12:07:36;;;;;;;7.63;2.97;;;;;;;;;;5097786;28;20039;-78
2023/09/24 12:10:02;;;;;;;4.10;2.50;;;;;;;;;;5099136;28;20043;-80
2023/09/24 12:12:28;;;;;;;4.57;2.40;;;;;;;;;;5102679;28;20117;-81
2023/09/24 12:14:54;;;;;;;5.63;2.65;;;;;;;;;;5097431;28;20482;-78
2023/09/24 12:17:20;;;;;;;4.25;2.40;;;;;;;;;;5100349;28;20556;-79
2023/09/24 12:19:46;;;;;;;4.35;2.60;;;;;;;;;;5116791;27;20032;-77
2023/09/24 12:22:13;;;;;;;5.07;2.83;;;;;;;;;;5109056;28;20043;-79
2023/09/24 12:24:39;;;;;;;7.47;2.50;;;;;;;;;;5098673;28;20093;-79
2023/09/24 12:27:05;;;;;;;4.43;2.75;;;;;;;;;;5109019;28;20080;-79
2023/09/24 12:29:32;;;;;;;5.80;2.63;;;;;;;;;;5109259;28;20080;-79
2023/09/24 12:31:58;;;;;;;3.88;2.22;;;;;;;;;;5112751;28;20212;-79
2023/09/24 12:34:24;;;;;;;4.55;2.60;;;;;;;;;;5110974;28;20040;-77
2023/09/24 12:36:50;;;;;;;5.18;2.53;;;;;;;;;;5098779;28;20545;-77
2023/09/24 12:39:20;;;;;;;5.13;2.33;;;;;;;;;;5109783;28;20111;-77
2023/09/24 12:41:48;;;;;;;5.57;2.22;;;;;;;;;;5106170;28;20036;-78
2023/09/24 12:44:14;;;;;;;4.30;2.30;;;;;;;;;;5098545;28;20070;-78
2023/09/24 12:46:40;;;;;;;4.00;2.25;;;;;;;;;;5105469;28;20075;-76
2023/09/24 12:49:06;;;;;;;3.97;2.05;;;;;;;;;;5097966;28;20039;-77
2023/09/24 12:51:32;;;;;;;3.42;2.40;;;;;;;;;;5099833;28;20071;-78
2023/09/24 12:53:58;;;;;;;4.55;2.35;;;;;;;;;;5107092;28;20051;-78
2023/09/24 12:56:25;;;;;;;4.32;2.20;;;;;;;;;;5105579;28;20043;-78
2023/09/24 12:58:55;;;;;;;4.43;2.35;;;;;;;;;;5097546;28;20047;-81
2023/09/24 13:01:21;;;;;;;3.97;2.10;;;;;;;;;;5106751;28;20155;-78
2023/09/24 13:03:47;;;;;;;4.88;2.22;;;;;;;;;;5106058;28;20047;-78
2023/09/24 13:06:22;;;;;;;5.22;2.28;;;;;;;;;;5098574;28;20039;-78
2023/09/24 13:08:51;;;;;;;4.25;2.17;;;;;;;;;;5098522;28;20059;-78
2023/09/24 13:11:18;;;;;;;4.43;2.10;;;;;;;;;;5105573;28;20397;-79
2023/09/24 13:13:44;;;;;;;3.55;1.95;;;;;;;;;;5104214;28;20067;-78
2023/09/24 13:16:11;;;;;;;3.72;2.30;;;;;;;;;;5112209;28;20043;-78
2023/09/24 13:18:37;;;;;;;4.07;2.00;;;;;;;;;;5103030;28;20082;-78
2023/09/24 13:21:03;;;;;;;5.15;1.98;;;;;;;;;;5103152;28;20131;-78
2023/09/24 13:23:29;;;;;;;4.57;2.55;;;;;;;;;;5105008;28;20094;-78
2023/09/24 13:25:55;;;;;;;4.82;2.30;;;;;;;;;;5097079;28;20031;-78
2023/09/24 13:28:22;;;;;;;4.72;2.20;;;;;;;;;;5104627;28;20069;-78
2023/09/24 13:30:48;;;;;;;6.25;2.35;;;;;;;;;;5109977;28;20040;-78
2023/09/24 13:33:14;;;;;;;4.43;2.10;;;;;;;;;;5104042;28;20397;-79
2023/09/24 13:35:41;;;;;;;4.25;2.20;;;;;;;;;;5111778;28;20055;-79
2023/09/24 13:38:07;;;;;;;4.43;2.30;;;;;;;;;;5109702;28;20055;-79
2023/09/24 13:40:40;;;;;;;3.85;1.90;;;;;;;;;;5109691;28;20145;-79
2023/09/24 13:43:07;;;;;;;4.72;2.47;;;;;;;;;;5112627;28;20040;-78
2023/09/24 13:45:39;;;;;;;4.50;2.05;;;;;;;;;;5103196;28;20052;-79
2023/09/24 13:48:05;;;;;;;4.45;2.05;;;;;;;;;;5099652;28;20495;-79
2023/09/24 13:50:31;;;;;;;3.78;2.10;;;;;;;;;;5104031;28;20039;-79
2023/09/24 13:52:57;;;;;;;5.43;2.40;;;;;;;;;;5100198;28;20043;-78
2023/09/24 13:55:23;;;;;;;5.07;1.90;;;;;;;;;;5104851;28;20035;-79
2023/09/24 13:57:49;;;;;;;6.32;2.60;;;;;;;;;;5109257;28;20123;-79
2023/09/24 14:00:15;;;;;;;3.58;2.03;;;;;;;;;;5104110;28;20100;-79
2023/09/24 14:02:42;;;;;;;7.93;2.75;;;;;;;;;;5095535;28;20040;-79
2023/09/24 14:05:09;;;;;;;4.40;2.10;;;;;;;;;;5100379;27;20048;-79
2023/09/24 14:07:35;;;;;;;3.88;2.65;;;;;;;;;;5099949;28;20491;-79
2023/09/24 14:12:46;;;;;;;3.38;2.00;;;;;;;;;;5100044;28;20056;-79
2023/09/24 14:15:12;;;;;;;5.10;2.50;;;;;;;;;;5100375;28;20067;-77
2023/09/24 14:17:38;;;;;;;2.80;1.90;;;;;;;;;;5102988;28;20040;-78
2023/09/24 14:20:05;;;;;;;3.70;1.88;;;;;;;;;;5108332;28;20044;-77
2023/09/24 14:22:31;;;;;;;5.53;2.40;;;;;;;;;;5106012;28;20101;-77
2023/09/24 14:24:57;;;;;;;6.07;2.28;;;;;;;;;;5109585;28;20126;-78
2023/09/24 14:27:23;;;;;;;6.85;3.10;;;;;;;;;;5109695;28;20039;-78
2023/09/24 14:29:51;;;;;;;5.07;2.55;;;;;;;;;;5103890;28;20043;-78
2023/09/24 14:32:17;;;;;;;4.43;2.20;;;;;;;;;;5114059;28;20044;-78
2023/09/24 14:34:43;;;;;;;3.20;1.92;;;;;;;;;;5104857;28;20127;-78
2023/09/24 14:37:10;;;;;;;4.68;2.10;;;;;;;;;;5114510;28;20051;-78
2023/09/24 14:39:36;;;;;;;4.60;2.17;;;;;;;;;;5112991;28;20116;-78
2023/09/24 14:42:02;;;;;;;5.38;2.63;;;;;;;;;;5103387;28;20100;-78
2023/09/24 14:44:32;;;;;;;4.05;2.35;;;;;;;;;;5096822;28;20503;-78